Time;durP1;ratioP1;P1;durP2;ratioP2;P2;SDS_P1;SDS_P2;PMS_P1;PMS_P2;Temp;Humidity;BMP_temperature;BMP_pressure;BME280_temperature;BME280_humidity;BME280_pressure;Samples;Min_cycle;Max_cycle;Signal;HPM_P1;HPM_P2
2021/09/28 00:01:47;;;;;;;6.70;5.20;;;18.10;92.50;;;;;;5006734;28;20250;-73
2021/09/28 00:04:14;;;;;;;10.00;5.10;;;18.10;92.50;;;;;;5008405;28;20276;-73
2021/09/28 00:06:41;;;;;;;5.40;3.70;;;18.10;92.50;;;;;;5027727;28;20230;-73
2021/09/28 00:09:08;;;;;;;3.87;3.57;;;18.10;92.50;;;;;;5009799;28;20243;-73
2021/09/28 00:11:34;;;;;;;8.60;3.00;;;18.10;92.60;;;;;;5010316;28;20594;-73
2021/09/28 00:14:02;;;;;;;3.07;2.80;;;18.00;92.60;;;;;;5026366;28;20215;-73
2021/09/28 00:16:30;;;;;;;3.57;3.23;;;18.10;92.60;;;;;;5024664;28;20635;-73
2021/09/28 00:18:58;;;;;;;6.40;3.27;;;18.00;92.60;;;;;;5006359;28;20303;-73
2021/09/28 00:21:26;;;;;;;4.70;1.87;;;18.00;92.60;;;;;;5009452;28;20212;-74
2021/09/28 00:23:53;;;;;;;2.10;1.97;;;18.00;92.60;;;;;;5026747;28;20207;-73
2021/09/28 00:26:20;;;;;;;24.37;5.30;;;18.00;92.60;;;;;;5018709;28;20223;-73
2021/09/28 00:28:47;;;;;;;3.77;3.13;;;17.90;92.60;;;;;;5024522;28;20718;-73
2021/09/28 00:31:14;;;;;;;6.93;4.50;;;17.90;92.70;;;;;;5022991;28;20218;-73
2021/09/28 00:33:42;;;;;;;7.07;3.30;;;17.80;92.70;;;;;;5007754;28;20211;-73
2021/09/28 00:36:09;;;;;;;3.17;2.90;;;17.80;92.80;;;;;;5025420;28;20261;-73
2021/09/28 00:38:36;;;;;;;1.77;1.60;;;17.80;92.80;;;;;;5023145;28;20648;-73
2021/09/28 00:41:03;;;;;;;6.13;2.30;;;17.80;92.80;;;;;;5026345;28;20259;-73
2021/09/28 00:43:51;;;;;;;9.40;3.93;;;17.80;92.90;;;;;;5023325;28;20230;-73
2021/09/28 00:46:18;;;;;;;5.20;2.47;;;17.80;92.80;;;;;;5022554;28;20294;-73
2021/09/28 00:48:46;;;;;;;6.63;2.30;;;17.80;92.80;;;;;;5024875;28;20652;-73
2021/09/28 00:51:14;;;;;;;4.23;3.83;;;17.80;92.80;;;;;;5008694;28;20204;-73
2021/09/28 00:53:42;;;;;;;4.53;3.20;;;17.70;92.80;;;;;;5025867;28;20226;-73
2021/09/28 00:56:14;;;;;;;5.50;2.37;;;17.70;92.80;;;;;;5023369;28;20215;-73
2021/09/28 00:58:41;;;;;;;2.43;1.87;;;17.70;92.90;;;;;;5024373;28;20703;-73
2021/09/28 01:01:12;;;;;;;6.60;2.37;;;17.70;92.90;;;;;;5023002;28;20215;-73
2021/09/28 01:03:40;;;;;;;4.07;3.10;;;17.70;93.00;;;;;;5007618;28;20214;-73
2021/09/28 01:06:07;;;;;;;7.23;5.00;;;17.70;93.00;;;;;;5022171;28;20216;-73
2021/09/28 01:08:34;;;;;;;6.80;4.00;;;17.70;93.00;;;;;;5028783;28;20563;-73
2021/09/28 01:11:03;;;;;;;2.57;2.47;;;17.70;93.00;;;;;;5027807;28;20281;-73
2021/09/28 01:13:30;;;;;;;2.57;2.13;;;17.70;93.00;;;;;;5022932;28;20223;-73
2021/09/28 01:16:00;;;;;;;5.60;4.07;;;17.70;93.00;;;;;;5015414;28;20215;-73
2021/09/28 01:18:30;;;;;;;2.80;2.60;;;17.70;92.90;;;;;;5013918;28;20273;-73
2021/09/28 01:20:58;;;;;;;4.33;3.10;;;17.70;92.90;;;;;;5024317;28;20218;-73
2021/09/28 01:23:25;;;;;;;2.13;2.03;;;17.60;92.90;;;;;;5025697;28;20214;-73
2021/09/28 01:25:52;;;;;;;14.97;2.70;;;17.60;92.90;;;;;;5006126;28;20285;-73
2021/09/28 01:28:19;;;;;;;1.50;1.10;;;17.60;92.90;;;;;;5024952;28;20234;-73
2021/09/28 01:30:46;;;;;;;1.00;1.00;;;17.60;92.90;;;;;;5003014;28;20561;-73
2021/09/28 01:33:15;;;;;;;2.13;1.63;;;17.60;92.90;;;;;;5023868;28;20553;-73
2021/09/28 01:35:42;;;;;;;5.70;2.30;;;17.50;92.90;;;;;;5021935;28;20220;-73
2021/09/28 01:38:09;;;;;;;1.97;1.87;;;17.50;92.90;;;;;;5013542;28;20211;-73
2021/09/28 01:40:37;;;;;;;1.27;1.27;;;17.50;92.90;;;;;;5025307;28;20651;-73
2021/09/28 01:43:10;;;;;;;1.60;1.50;;;17.50;92.90;;;;;;5007460;28;20527;-73
2021/09/28 01:45:39;;;;;;;2.30;2.20;;;17.50;92.90;;;;;;5009976;28;20631;-73
2021/09/28 01:48:06;;;;;;;2.70;1.40;;;17.50;92.90;;;;;;5028022;28;20700;-73
2021/09/28 01:50:35;;;;;;;2.83;2.53;;;17.50;92.90;;;;;;5026183;28;20439;-73
2021/09/28 01:53:03;;;;;;;5.23;3.83;;;17.50;92.90;;;;;;5029178;28;20226;-73
2021/09/28 01:55:30;;;;;;;2.07;1.97;;;17.50;92.90;;;;;;5028366;28;20546;-73
2021/09/28 01:57:58;;;;;;;9.03;2.00;;;17.50;92.90;;;;;;5018094;28;20215;-73
2021/09/28 02:00:27;;;;;;;5.33;3.33;;;17.50;92.90;;;;;;5008118;28;20220;-73
2021/09/28 02:02:54;;;;;;;2.97;2.10;;;17.40;92.90;;;;;;5018495;28;20485;-73
2021/09/28 02:05:22;;;;;;;6.00;4.47;;;17.40;92.90;;;;;;5007753;28;20231;-73
2021/09/28 02:07:49;;;;;;;2.23;2.10;;;17.30;93.00;;;;;;5018260;28;20211;-73
2021/09/28 02:10:16;;;;;;;1.53;1.43;;;17.40;93.00;;;;;;5017981;28;20254;-73
2021/09/28 02:12:43;;;;;;;4.30;1.63;;;17.30;93.00;;;;;;5000550;28;20529;-73
2021/09/28 02:15:10;;;;;;;1.40;1.30;;;17.30;93.00;;;;;;5005234;28;20294;-73
2021/09/28 02:17:39;;;;;;;3.10;2.63;;;17.30;93.00;;;;;;4997226;28;20291;-73
2021/09/28 02:20:07;;;;;;;1.63;1.40;;;17.30;93.00;;;;;;5012905;28;20240;-73
2021/09/28 02:22:35;;;;;;;2.07;1.87;;;17.30;93.00;;;;;;4995759;28;20200;-73
2021/09/28 02:25:02;;;;;;;3.77;2.07;;;17.30;93.00;;;;;;5014962;28;20684;-73
2021/09/28 02:27:29;;;;;;;1.60;1.43;;;17.30;93.00;;;;;;5032440;28;20210;-73
2021/09/28 02:29:57;;;;;;;8.10;2.53;;;17.30;93.00;;;;;;5032265;28;20280;-73
2021/09/28 02:32:24;;;;;;;1.03;1.03;;;17.20;93.00;;;;;;4995850;28;20310;-73
2021/09/28 02:34:51;;;;;;;4.40;2.60;;;17.20;93.00;;;;;;5013086;28;20367;-73
2021/09/28 02:37:18;;;;;;;1.87;1.77;;;17.20;93.00;;;;;;5012898;28;20246;-73
2021/09/28 02:39:45;;;;;;;3.00;1.93;;;17.20;93.00;;;;;;5012831;28;20218;-73
2021/09/28 02:42:13;;;;;;;15.77;3.53;;;17.20;93.00;;;;;;5012611;28;20625;-73
2021/09/28 02:44:40;;;;;;;5.40;2.97;;;17.20;92.90;;;;;;4995275;28;20215;-73
2021/09/28 02:47:07;;;;;;;6.93;2.07;;;17.20;92.90;;;;;;5001703;28;20243;-73
2021/09/28 02:49:34;;;;;;;1.27;1.27;;;17.20;92.90;;;;;;5034730;28;20229;-73
2021/09/28 02:52:01;;;;;;;9.83;2.27;;;17.20;92.90;;;;;;5052130;28;20213;-73
2021/09/28 02:54:28;;;;;;;4.27;2.13;;;17.20;92.90;;;;;;5052285;28;20206;-73
2021/09/28 02:56:55;;;;;;;2.73;2.53;;;17.20;92.90;;;;;;5051923;28;20214;-73
2021/09/28 02:59:22;;;;;;;2.60;2.40;;;17.20;92.90;;;;;;5052244;28;20218;-73
2021/09/28 03:01:49;;;;;;;6.93;2.80;;;17.20;92.90;;;;;;5051815;28;20269;-74
2021/09/28 03:04:17;;;;;;;5.13;3.27;;;17.20;92.90;;;;;;5032197;28;20202;-73
2021/09/28 03:06:44;;;;;;;2.80;1.77;;;17.20;92.90;;;;;;5058642;28;20259;-73
2021/09/28 03:09:11;;;;;;;2.23;2.13;;;17.20;92.90;;;;;;5072678;28;20665;-73
2021/09/28 03:11:38;;;;;;;3.97;2.70;;;17.20;92.90;;;;;;5054330;28;20719;-73
2021/09/28 03:14:05;;;;;;;4.70;4.37;;;17.20;92.90;;;;;;5072182;28;20565;-73
2021/09/28 03:16:32;;;;;;;1.90;1.80;;;17.10;92.90;;;;;;5052878;28;20268;-73
2021/09/28 03:19:00;;;;;;;3.67;3.20;;;17.10;93.00;;;;;;5034854;28;20264;-73
2021/09/28 03:21:27;;;;;;;1.97;1.53;;;17.10;93.00;;;;;;5051570;28;20207;-73
2021/09/28 03:23:54;;;;;;;4.63;2.13;;;17.10;93.00;;;;;;5044733;28;20551;-73
2021/09/28 03:26:21;;;;;;;8.33;1.57;;;17.10;93.00;;;;;;5051501;28;20214;-73
2021/09/28 03:28:49;;;;;;;2.73;1.83;;;17.10;93.00;;;;;;5051824;28;20222;-73
2021/09/28 03:31:16;;;;;;;3.07;2.23;;;17.10;93.00;;;;;;5036866;28;20210;-73
2021/09/28 03:33:43;;;;;;;5.63;2.83;;;17.10;93.00;;;;;;5055480;28;20245;-73
2021/09/28 03:36:10;;;;;;;5.87;2.03;;;17.10;93.00;;;;;;5055300;28;20275;-73
2021/09/28 03:38:37;;;;;;;1.43;1.33;;;17.00;93.00;;;;;;5055714;28;20206;-73
2021/09/28 03:41:04;;;;;;;1.80;1.70;;;17.00;93.10;;;;;;5055195;28;20206;-73
2021/09/28 03:43:31;;;;;;;3.07;2.03;;;17.00;93.10;;;;;;5055666;28;20209;-73
2021/09/28 03:45:58;;;;;;;2.30;1.53;;;17.00;93.10;;;;;;5055009;28;20200;-73
2021/09/28 03:48:25;;;;;;;3.53;2.37;;;17.00;93.10;;;;;;5037721;28;20276;-73
2021/09/28 03:50:52;;;;;;;2.47;2.27;;;17.00;93.10;;;;;;5055294;28;20241;-73
2021/09/28 03:53:19;;;;;;;2.00;1.83;;;17.10;93.10;;;;;;5037775;28;20214;-73
2021/09/28 03:55:46;;;;;;;5.93;3.60;;;17.00;93.10;;;;;;5054723;28;20210;-73
2021/09/28 03:58:15;;;;;;;2.23;2.10;;;17.00;93.10;;;;;;5037455;28;20601;-73
2021/09/28 04:00:43;;;;;;;4.43;3.43;;;17.00;93.10;;;;;;5037306;28;20214;-72
2021/09/28 04:03:10;;;;;;;2.00;0.93;;;17.00;93.10;;;;;;5055020;28;20225;-72
2021/09/28 04:05:38;;;;;;;4.33;1.63;;;17.00;93.10;;;;;;5037120;28;20256;-73
2021/09/28 04:08:05;;;;;;;12.07;2.57;;;17.00;93.10;;;;;;5054871;28;20210;-73
2021/09/28 04:10:37;;;;;;;3.13;2.93;;;17.00;93.10;;;;;;5054568;28;20230;-73
2021/09/28 04:13:09;;;;;;;1.07;1.07;;;17.00;93.10;;;;;;5037937;28;20217;-73
2021/09/28 04:15:40;;;;;;;2.70;1.97;;;16.90;93.10;;;;;;5036995;28;20692;-73
2021/09/28 04:18:09;;;;;;;5.90;3.13;;;16.90;93.10;;;;;;5054730;28;20246;-73
2021/09/28 04:20:42;;;;;;;1.97;1.67;;;16.90;93.10;;;;;;5054025;28;20236;-74
2021/09/28 04:23:11;;;;;;;4.63;2.80;;;16.90;93.10;;;;;;5054692;28;20217;-73
2021/09/28 04:25:38;;;;;;;4.90;2.87;;;16.90;93.10;;;;;;5054173;28;20650;-73
2021/09/28 04:28:10;;;;;;;2.10;1.70;;;16.90;93.20;;;;;;5037619;28;20551;-73
2021/09/28 04:30:37;;;;;;;2.80;2.60;;;16.90;93.10;;;;;;5036531;28;20234;-73
2021/09/28 04:33:04;;;;;;;9.67;2.77;;;16.90;93.10;;;;;;5054756;28;20214;-73
2021/09/28 04:35:31;;;;;;;3.50;2.67;;;16.80;93.10;;;;;;5054122;28;20202;-73
2021/09/28 04:37:59;;;;;;;2.73;2.53;;;16.80;93.10;;;;;;5037336;28;20599;-73
2021/09/28 04:40:26;;;;;;;2.70;2.47;;;16.80;93.10;;;;;;5036606;28;20247;-73
2021/09/28 04:42:53;;;;;;;8.20;3.57;;;16.80;93.20;;;;;;5053279;28;20268;-73
2021/09/28 04:45:20;;;;;;;5.93;3.03;;;16.80;93.20;;;;;;5036731;28;20206;-73
2021/09/28 04:47:47;;;;;;;8.37;4.17;;;16.80;93.20;;;;;;5054034;28;20779;-73
2021/09/28 04:50:14;;;;;;;2.47;2.27;;;16.80;93.20;;;;;;5036621;28;20859;-73
2021/09/28 04:52:41;;;;;;;6.40;3.20;;;16.80;93.20;;;;;;5054409;28;20218;-73
2021/09/28 04:55:08;;;;;;;2.30;2.10;;;16.80;93.20;;;;;;5036980;28;20222;-73
2021/09/28 04:57:35;;;;;;;4.10;2.50;;;16.80;93.20;;;;;;5036661;28;20207;-72
2021/09/28 05:00:04;;;;;;;1.90;1.80;;;16.80;93.20;;;;;;5054423;28;20210;-72
2021/09/28 05:02:31;;;;;;;3.87;3.53;;;16.80;93.20;;;;;;5050641;28;20213;-73
2021/09/28 05:04:58;;;;;;;1.00;1.00;;;16.80;93.10;;;;;;5054024;28;20284;-73
2021/09/28 05:07:25;;;;;;;8.53;4.37;;;16.80;93.10;;;;;;5035332;28;20214;-73
2021/09/28 05:09:52;;;;;;;0.87;0.83;;;16.80;93.10;;;;;;5051426;28;20226;-73
2021/09/28 05:12:20;;;;;;;3.93;2.03;;;16.80;93.10;;;;;;5053445;28;20650;-72
2021/09/28 05:14:47;;;;;;;2.63;2.43;;;16.80;93.10;;;;;;5052304;28;20290;-72
2021/09/28 05:17:14;;;;;;;4.37;2.10;;;16.80;93.10;;;;;;5053253;28;20217;-73
2021/09/28 05:19:41;;;;;;;3.67;3.17;;;16.70;93.10;;;;;;5053353;28;20210;-73
2021/09/28 05:22:08;;;;;;;2.67;1.70;;;16.80;93.10;;;;;;5054241;28;20206;-73
2021/09/28 05:24:35;;;;;;;4.93;2.73;;;16.80;93.10;;;;;;5038877;28;20264;-73
2021/09/28 05:27:02;;;;;;;8.87;3.10;;;16.80;93.10;;;;;;5053409;28;20222;-73
2021/09/28 05:29:29;;;;;;;1.50;1.40;;;16.80;93.10;;;;;;5037201;28;20559;-73
2021/09/28 05:31:56;;;;;;;0.97;0.97;;;16.90;93.10;;;;;;5053283;28;20642;-73
2021/09/28 05:34:23;;;;;;;4.07;2.77;;;16.90;93.10;;;;;;5053693;28;20659;-72
2021/09/28 05:36:52;;;;;;;8.53;2.47;;;16.90;93.00;;;;;;5053276;28;20709;-72
2021/09/28 05:39:20;;;;;;;2.17;1.97;;;16.90;93.00;;;;;;5053716;28;20506;-72
2021/09/28 05:41:47;;;;;;;2.93;2.73;;;17.00;93.00;;;;;;5053308;28;20214;-73
2021/09/28 05:44:14;;;;;;;2.37;2.13;;;17.00;93.00;;;;;;5035887;28;20264;-73
2021/09/28 05:46:41;;;;;;;5.30;3.17;;;17.00;93.10;;;;;;5049378;28;20312;-73
2021/09/28 05:49:08;;;;;;;7.37;3.37;;;17.10;93.10;;;;;;5033112;28;20210;-73
2021/09/28 05:51:36;;;;;;;2.73;2.50;;;17.10;93.10;;;;;;5015642;28;20207;-73
2021/09/28 05:54:06;;;;;;;5.20;2.20;;;17.20;93.10;;;;;;5015739;28;20237;-73
2021/09/28 05:56:34;;;;;;;3.80;2.23;;;17.30;93.00;;;;;;5015821;28;20215;-73
2021/09/28 05:59:00;;;;;;;1.83;1.73;;;17.40;93.00;;;;;;5014559;28;20211;-73
2021/09/28 06:01:27;;;;;;;6.70;2.20;;;17.40;92.90;;;;;;5015541;28;20218;-73
2021/09/28 06:03:55;;;;;;;3.03;2.80;;;17.50;92.80;;;;;;5021528;28;20557;-73
2021/09/28 06:06:26;;;;;;;10.77;5.23;;;17.60;92.70;;;;;;5023151;28;20207;-73
2021/09/28 06:08:54;;;;;;;6.00;4.30;;;17.60;92.60;;;;;;5014736;28;20214;-73
2021/09/28 06:11:22;;;;;;;1.63;1.53;;;17.70;92.60;;;;;;5011812;28;20561;-73
2021/09/28 06:13:50;;;;;;;3.20;2.53;;;17.80;92.50;;;;;;5023006;28;20214;-73
2021/09/28 06:16:18;;;;;;;11.63;3.07;;;17.90;92.50;;;;;;5006536;28;20343;-73
2021/09/28 06:18:45;;;;;;;3.63;3.27;;;17.90;92.40;;;;;;5024094;28;20218;-73
2021/09/28 06:21:12;;;;;;;3.67;3.37;;;18.00;92.40;;;;;;5021294;28;20223;-73
2021/09/28 06:23:40;;;;;;;13.67;5.10;;;18.10;92.40;;;;;;5022395;28;20218;-73
2021/09/28 06:26:08;;;;;;;2.47;2.27;;;18.20;92.30;;;;;;5019715;28;20214;-73
2021/09/28 06:28:36;;;;;;;2.03;1.93;;;18.30;92.20;;;;;;5008870;28;20265;-73
2021/09/28 06:31:03;;;;;;;9.73;4.77;;;18.40;92.20;;;;;;5004910;28;20363;-73
2021/09/28 06:33:31;;;;;;;7.93;5.73;;;18.50;92.10;;;;;;5023870;28;20221;-73
2021/09/28 06:35:58;;;;;;;2.57;2.37;;;18.60;92.10;;;;;;5012002;28;20230;-73
2021/09/28 06:38:25;;;;;;;4.40;2.67;;;18.70;92.30;;;;;;5013335;28;20607;-73
2021/09/28 06:40:52;;;;;;;4.47;3.50;;;18.80;91.90;;;;;;5014226;28;20277;-73
2021/09/28 06:43:19;;;;;;;5.47;3.70;;;18.80;91.80;;;;;;5021120;28;20230;-73
2021/09/28 06:45:46;;;;;;;6.30;2.77;;;18.90;91.80;;;;;;5020525;28;20277;-73
2021/09/28 06:48:15;;;;;;;2.33;2.23;;;19.00;91.70;;;;;;5022001;28;20687;-73
2021/09/28 06:50:42;;;;;;;1.93;1.83;;;19.10;91.70;;;;;;5023497;28;20239;-73
2021/09/28 06:53:10;;;;;;;2.70;2.37;;;19.10;91.70;;;;;;5020642;28;20215;-73
2021/09/28 06:55:37;;;;;;;3.47;3.27;;;19.20;91.60;;;;;;5019672;28;20220;-73
2021/09/28 06:58:05;;;;;;;8.57;3.30;;;19.30;91.60;;;;;;5006516;28;20219;-73
2021/09/28 07:00:35;;;;;;;3.07;2.63;;;19.40;91.60;;;;;;5013840;28;20215;-73
2021/09/28 07:03:03;;;;;;;3.33;2.27;;;19.50;91.50;;;;;;5020489;28;20219;-73
2021/09/28 07:05:32;;;;;;;4.80;3.67;;;19.50;91.50;;;;;;5012559;28;20644;-73
2021/09/28 07:07:59;;;;;;;5.60;5.07;;;19.70;91.40;;;;;;5027271;28;20211;-73
2021/09/28 07:10:26;;;;;;;1.57;1.47;;;19.70;91.30;;;;;;5007576;28;20247;-73
2021/09/28 07:12:53;;;;;;;16.30;3.57;;;19.80;91.30;;;;;;5007947;28;20219;-73
2021/09/28 07:15:20;;;;;;;2.67;2.47;;;19.90;91.20;;;;;;5014551;28;20295;-73
2021/09/28 07:17:47;;;;;;;1.87;1.57;;;20.00;91.40;;;;;;5026530;28;20211;-73
2021/09/28 07:20:15;;;;;;;3.23;2.90;;;20.10;91.10;;;;;;5025349;28;20281;-73
2021/09/28 07:22:42;;;;;;;3.43;3.13;;;20.30;91.00;;;;;;5024546;28;20223;-73
2021/09/28 07:25:10;;;;;;;2.50;1.87;;;20.40;90.90;;;;;;5026913;28;20226;-73
2021/09/28 07:27:57;;;;;;;2.83;2.63;;;20.60;90.80;;;;;;5026973;28;20246;-73
2021/09/28 07:30:26;;;;;;;6.43;3.60;;;20.70;90.60;;;;;;5025212;28;20666;-73
2021/09/28 07:32:54;;;;;;;4.23;1.97;;;20.90;90.50;;;;;;5024529;28;20208;-73
2021/09/28 07:35:21;;;;;;;3.47;3.17;;;21.10;90.30;;;;;;5009715;28;20245;-74
2021/09/28 07:37:48;;;;;;;6.53;5.07;;;21.20;90.10;;;;;;5007555;28;20212;-73
2021/09/28 07:40:16;;;;;;;4.33;3.97;;;21.30;89.90;;;;;;5007653;28;20238;-73
2021/09/28 07:42:44;;;;;;;2.90;2.63;;;21.40;89.60;;;;;;5009440;28;20235;-73
2021/09/28 07:45:13;;;;;;;1.60;1.57;;;21.50;89.30;;;;;;5024115;28;20302;-74
2021/09/28 07:47:40;;;;;;;8.23;4.90;;;21.70;89.10;;;;;;5024824;28;20235;-73
2021/09/28 07:50:09;;;;;;;5.07;4.60;;;21.80;88.70;;;;;;5009754;28;20306;-74
2021/09/28 07:52:36;;;;;;;3.40;3.10;;;22.00;88.10;;;;;;5007007;28;20465;-73
2021/09/28 07:55:03;;;;;;;3.00;2.73;;;22.10;87.40;;;;;;5025593;28;20607;-73
2021/09/28 07:57:30;;;;;;;3.07;2.77;;;22.30;87.10;;;;;;5012481;28;20703;-73
2021/09/28 07:59:57;;;;;;;2.23;2.13;;;22.40;86.50;;;;;;5023902;28;20231;-73
2021/09/28 08:02:24;;;;;;;5.30;4.90;;;22.50;85.60;;;;;;5008618;28;20662;-73
2021/09/28 08:04:52;;;;;;;2.67;2.47;;;22.60;85.30;;;;;;5025526;28;20224;-73
2021/09/28 08:07:19;;;;;;;3.07;2.37;;;22.80;84.80;;;;;;5023315;28;20234;-74
2021/09/28 08:09:46;;;;;;;3.00;2.80;;;22.80;84.20;;;;;;5008750;28;20215;-73
2021/09/28 08:12:13;;;;;;;3.70;3.37;;;22.90;84.00;;;;;;5024433;28;20227;-74
2021/09/28 08:14:40;;;;;;;9.83;3.57;;;23.10;83.80;;;;;;5027275;28;20207;-74
2021/09/28 08:17:07;;;;;;;5.67;3.50;;;23.30;83.40;;;;;;5026117;28;20215;-74
2021/09/28 08:19:39;;;;;;;4.73;3.57;;;23.50;82.80;;;;;;5023679;28;20238;-74
2021/09/28 08:22:09;;;;;;;10.00;4.57;;;23.60;82.30;;;;;;5013841;28;20238;-74
2021/09/28 08:24:42;;;;;;;7.40;5.13;;;23.80;81.90;;;;;;5014945;28;20216;-74
2021/09/28 08:30:04;;;;;;;2.17;2.07;;;24.10;80.80;;;;;;5025236;28;20753;-74
2021/09/28 08:32:31;;;;;;;3.60;3.30;;;24.30;80.30;;;;;;5022836;28;20220;-74
2021/09/28 08:34:58;;;;;;;5.23;4.67;;;24.30;79.70;;;;;;5007495;28;20214;-74
2021/09/28 08:37:26;;;;;;;6.03;5.47;;;24.50;79.30;;;;;;5024720;28;20228;-74
2021/09/28 08:39:55;;;;;;;2.47;2.33;;;24.50;79.10;;;;;;5005967;28;20295;-74
2021/09/28 08:42:23;;;;;;;5.50;5.00;;;24.60;78.80;;;;;;5007696;28;20207;-74
2021/09/28 08:44:52;;;;;;;4.47;4.10;;;24.80;78.30;;;;;;5008159;28;20215;-74
2021/09/28 08:47:45;;;;;;;2.97;2.70;;;24.80;77.30;;;;;;5022943;28;20259;-74
2021/09/28 08:50:16;;;;;;;8.00;5.73;;;24.90;77.00;;;;;;5005323;28;20246;-74
2021/09/28 08:52:48;;;;;;;9.43;5.00;;;25.00;76.80;;;;;;5023287;28;20247;-74
2021/09/28 08:55:21;;;;;;;8.43;5.20;;;25.20;76.40;;;;;;5025263;28;20417;-74
2021/09/28 08:57:49;;;;;;;2.37;1.57;;;25.20;75.80;;;;;;5018303;28;20215;-74
2021/09/28 09:00:16;;;;;;;7.17;3.73;;;25.30;74.30;;;;;;5025662;28;20222;-74
2021/09/28 09:02:45;;;;;;;4.77;4.13;;;25.30;74.50;;;;;;5025051;28;20234;-75
2021/09/28 09:05:16;;;;;;;4.27;3.93;;;25.30;74.50;;;;;;5005402;28;20636;-74
2021/09/28 09:07:59;;;;;;;2.93;2.73;;;25.40;74.20;;;;;;5015703;28;20221;-74
2021/09/28 09:10:29;;;;;;;3.37;2.73;;;25.60;73.90;;;;;;5008438;28;20570;-74
2021/09/28 09:12:56;;;;;;;2.00;1.67;;;25.60;73.10;;;;;;5023002;28;20208;-74
2021/09/28 09:15:28;;;;;;;5.00;3.30;;;25.70;73.00;;;;;;5025770;28;20294;-73
2021/09/28 09:18:04;;;;;;;11.20;3.73;;;25.90;72.70;;;;;;5015812;28;20576;-73
2021/09/28 09:20:42;;;;;;;2.67;2.47;;;25.90;71.90;;;;;;5024018;28;20591;-73
2021/09/28 09:23:25;;;;;;;5.23;4.73;;;26.10;71.90;;;;;;5022845;28;20219;-74
2021/09/28 09:26:08;;;;;;;4.17;3.80;;;26.20;71.50;;;;;;5021811;28;20219;-74
2021/09/28 09:28:56;;;;;;;4.53;3.83;;;26.20;70.30;;;;;;5012005;28;20214;-74
2021/09/28 09:31:37;;;;;;;4.03;3.53;;;26.10;69.50;;;;;;5024810;28;20239;-74
2021/09/28 09:34:15;;;;;;;9.13;4.00;;;26.10;70.30;;;;;;5024730;28;20249;-74
2021/09/28 09:36:52;;;;;;;3.03;2.63;;;26.20;69.80;;;;;;5006123;28;20223;-74
2021/09/28 09:39:21;;;;;;;7.67;5.00;;;26.20;69.70;;;;;;5022397;28;20212;-74
2021/09/28 09:42:05;;;;;;;7.67;3.73;;;26.30;69.60;;;;;;5006374;28;20242;-75
2021/09/28 09:44:32;;;;;;;15.83;4.40;;;26.50;69.40;;;;;;5011606;28;20231;-74
2021/09/28 09:47:00;;;;;;;4.27;3.93;;;26.60;68.50;;;;;;5022076;28;20609;-74
2021/09/28 09:49:34;;;;;;;4.23;3.60;;;26.60;67.70;;;;;;5021105;28;20652;-74
2021/09/28 09:52:09;;;;;;;4.07;3.70;;;26.50;67.80;;;;;;5013729;28;20235;-74
2021/09/28 09:54:42;;;;;;;3.33;3.10;;;26.40;67.50;;;;;;5024892;28;20301;-74
2021/09/28 09:57:14;;;;;;;7.03;3.77;;;26.40;66.90;;;;;;5005574;28;20212;-74
2021/09/28 09:59:41;;;;;;;5.77;5.27;;;26.40;67.20;;;;;;5007811;28;20269;-74
2021/09/28 10:02:09;;;;;;;3.90;3.20;;;26.50;67.20;;;;;;5004844;28;20667;-74
2021/09/28 10:04:37;;;;;;;6.80;5.03;;;26.60;66.80;;;;;;5022611;28;20221;-74
2021/09/28 10:07:05;;;;;;;3.23;3.00;;;26.50;66.30;;;;;;5024173;28;20219;-74
2021/09/28 10:09:42;;;;;;;4.00;2.57;;;26.50;66.10;;;;;;5022006;28;20273;-74
2021/09/28 10:12:10;;;;;;;5.40;1.80;;;26.50;65.80;;;;;;5021510;28;20258;-74
2021/09/28 10:14:44;;;;;;;3.07;2.87;;;26.60;65.80;;;;;;5023230;28;20575;-75
2021/09/28 10:17:21;;;;;;;5.93;4.70;;;26.50;66.00;;;;;;5021390;28;20714;-74
2021/09/28 10:19:53;;;;;;;7.17;3.03;;;26.50;66.40;;;;;;5004205;28;20254;-74
2021/09/28 10:22:36;;;;;;;5.57;3.93;;;26.70;66.20;;;;;;5020590;28;20605;-74
2021/09/28 10:25:31;;;;;;;12.00;3.40;;;26.70;65.50;;;;;;5023353;28;20538;-74
2021/09/28 10:28:04;;;;;;;6.27;3.43;;;26.40;65.90;;;;;;5019383;28;20259;-74
2021/09/28 10:30:31;;;;;;;6.90;4.60;;;26.20;66.70;;;;;;5022184;28;20327;-74
2021/09/28 10:33:02;;;;;;;9.47;3.90;;;26.50;66.70;;;;;;5023291;28;20294;-74
2021/09/28 10:35:31;;;;;;;3.10;2.83;;;26.70;66.20;;;;;;5006577;28;20279;-74
2021/09/28 10:38:04;;;;;;;6.00;4.20;;;26.90;65.50;;;;;;5005076;28;20710;-73
2021/09/28 10:40:36;;;;;;;6.23;4.90;;;27.10;65.20;;;;;;5022256;28;20227;-74
2021/09/28 10:43:08;;;;;;;5.90;4.40;;;27.40;65.00;;;;;;5026930;28;20219;-74
2021/09/28 10:45:38;;;;;;;7.80;4.37;;;27.60;64.50;;;;;;5027306;28;20789;-74
2021/09/28 10:48:26;;;;;;;9.47;3.87;;;27.80;63.70;;;;;;5026147;28;20274;-73
2021/09/28 10:51:11;;;;;;;3.57;3.30;;;27.80;63.30;;;;;;5007867;28;20236;-75
2021/09/28 10:53:47;;;;;;;5.33;4.03;;;27.80;63.70;;;;;;5025084;28;20212;-74
2021/09/28 10:56:15;;;;;;;7.67;3.77;;;27.90;63.80;;;;;;5025896;28;20218;-74
2021/09/28 10:58:51;;;;;;;4.07;3.67;;;27.90;63.10;;;;;;5016635;28;20695;-74
2021/09/28 11:01:19;;;;;;;4.03;2.60;;;27.70;61.90;;;;;;5016485;28;20298;-75
2021/09/28 11:04:02;;;;;;;3.30;3.00;;;27.50;62.00;;;;;;5016079;28;20281;-75
2021/09/28 11:07:07;;;;;;;3.37;2.23;;;27.40;61.50;;;;;;5006791;28;20212;-74
2021/09/28 11:09:47;;;;;;;6.83;2.93;;;27.30;61.70;;;;;;5017349;28;20215;-74
2021/09/28 11:12:15;;;;;;;2.47;1.97;;;27.40;61.00;;;;;;5024579;28;20243;-74
2021/09/28 11:14:42;;;;;;;4.57;2.50;;;27.50;60.70;;;;;;5028464;28;20218;-74
2021/09/28 11:17:14;;;;;;;8.67;5.87;;;27.60;60.90;;;;;;5006898;28;20532;-74
2021/09/28 11:19:42;;;;;;;4.20;2.77;;;27.70;61.10;;;;;;5025310;28;20262;-74
2021/09/28 11:22:15;;;;;;;5.60;3.83;;;27.80;60.40;;;;;;5024749;28;20242;-74
2021/09/28 11:24:42;;;;;;;5.10;3.77;;;27.80;60.00;;;;;;5024381;28;20215;-74
2021/09/28 11:27:10;;;;;;;23.90;4.60;;;27.90;60.30;;;;;;5005875;28;20220;-74
2021/09/28 11:29:39;;;;;;;4.33;4.00;;;28.00;60.40;;;;;;5027447;28;20214;-74
2021/09/28 11:32:08;;;;;;;6.60;4.53;;;28.00;60.50;;;;;;5023611;28;20242;-73
2021/09/28 11:34:37;;;;;;;4.07;2.70;;;28.00;60.80;;;;;;5026139;28;20211;-73
2021/09/28 11:37:21;;;;;;;4.07;3.50;;;28.00;60.40;;;;;;5013808;28;20223;-73
2021/09/28 11:39:49;;;;;;;6.77;4.20;;;27.90;59.60;;;;;;5007643;28;20215;-75
2021/09/28 11:42:17;;;;;;;3.90;3.47;;;27.70;60.00;;;;;;5026435;28;20632;-74
2021/09/28 11:44:51;;;;;;;5.83;4.50;;;27.60;60.90;;;;;;5028577;28;20306;-74
2021/09/28 11:47:25;;;;;;;6.50;2.73;;;27.60;60.40;;;;;;5023553;28;20259;-74
2021/09/28 11:50:01;;;;;;;4.50;3.07;;;27.70;60.50;;;;;;5024674;28;20239;-74
2021/09/28 11:52:29;;;;;;;3.20;3.00;;;27.70;60.00;;;;;;5022600;28;20235;-75
2021/09/28 11:54:57;;;;;;;3.97;3.57;;;27.60;59.10;;;;;;5028149;28;20211;-74
2021/09/28 11:57:25;;;;;;;3.77;3.43;;;27.50;59.40;;;;;;5023576;28;20636;-75
2021/09/28 11:59:52;;;;;;;8.40;4.60;;;27.50;60.00;;;;;;5022884;28;20684;-75
2021/09/28 12:02:22;;;;;;;3.13;2.80;;;27.40;60.10;;;;;;5008756;28;20222;-74
2021/09/28 12:05:45;;;;;;;4.67;3.27;;;27.40;60.50;;;;;;5025578;28;20220;-74
2021/09/28 12:10:21;;;;;;;2.43;2.33;;;27.70;60.50;;;;;;5015431;28;20226;-74
2021/09/28 12:12:50;;;;;;;4.63;4.23;;;27.90;60.30;;;;;;5006029;28;20235;-75
2021/09/28 12:15:18;;;;;;;3.20;2.90;;;28.00;60.80;;;;;;5026022;28;20211;-74
2021/09/28 12:17:47;;;;;;;3.93;3.10;;;28.10;58.70;;;;;;5025272;28;20486;-74
2021/09/28 12:20:23;;;;;;;12.83;2.77;;;28.10;58.50;;;;;;5006449;28;20212;-74
2021/09/28 12:22:53;;;;;;;8.30;3.47;;;28.10;58.40;;;;;;5024930;28;20223;-74
2021/09/28 12:25:31;;;;;;;4.37;3.97;;;28.10;58.50;;;;;;5023905;28;20215;-74
2021/09/28 12:28:07;;;;;;;7.60;3.17;;;28.20;58.00;;;;;;5022726;28;20617;-74
2021/09/28 12:30:56;;;;;;;4.17;3.27;;;28.20;58.10;;;;;;5026212;28;20306;-74
2021/09/28 12:33:23;;;;;;;3.50;2.87;;;28.20;58.00;;;;;;5011197;28;20636;-73
2021/09/28 12:35:52;;;;;;;2.60;2.37;;;28.30;58.10;;;;;;5023876;28;20215;-73
2021/09/28 12:38:19;;;;;;;5.70;3.83;;;28.30;57.80;;;;;;5025592;28;20240;-73
2021/09/28 12:40:46;;;;;;;2.73;2.53;;;28.40;58.20;;;;;;5005693;28;20220;-74
2021/09/28 12:43:17;;;;;;;4.63;3.73;;;28.50;58.30;;;;;;5007817;28;20214;-73
2021/09/28 12:45:47;;;;;;;5.10;3.77;;;28.50;57.70;;;;;;5025431;28;20622;-73
2021/09/28 12:48:33;;;;;;;3.57;2.97;;;28.50;57.80;;;;;;5014141;28;20239;-74
2021/09/28 12:51:07;;;;;;;1.23;1.23;;;28.50;58.10;;;;;;5014005;28;20281;-74
2021/09/28 12:53:35;;;;;;;2.47;2.20;;;28.40;57.30;;;;;;5014192;28;20230;-74
2021/09/28 12:56:03;;;;;;;3.73;3.37;;;28.40;57.20;;;;;;5015642;28;20307;-74
2021/09/28 12:58:32;;;;;;;4.10;3.70;;;28.30;56.80;;;;;;5011555;28;20219;-75
2021/09/28 13:01:04;;;;;;;2.23;2.03;;;28.20;57.10;;;;;;5023050;28;20223;-75
2021/09/28 13:03:33;;;;;;;4.57;2.47;;;28.10;57.50;;;;;;5024974;28;20214;-75